Time;durP1;ratioP1;P1;durP2;ratioP2;P2;SDS_P1;SDS_P2;PMS_P1;PMS_P2;Temp;Humidity;BMP_temperature;BMP_pressure;BME280_temperature;BME280_humidity;BME280_pressure;Samples;Min_cycle;Max_cycle;Signal;HPM_P1;HPM_P2
2023/12/08 00:02:25;;;;;;;23.08;11.02;;;;;;;1.04;100.00;100660.50;4995374;28;20104;-82
2023/12/08 00:04:50;;;;;;;21.85;10.38;;;;;;;1.10;100.00;100650.41;5013888;28;20030;-82
2023/12/08 00:07:15;;;;;;;21.77;10.50;;;;;;;1.15;100.00;100683.72;5015155;28;20014;-82
2023/12/08 00:09:41;;;;;;;20.35;9.60;;;;;;;1.10;100.00;100654.66;5001927;28;20180;-82
2023/12/08 00:12:06;;;;;;;21.15;9.88;;;;;;;1.11;100.00;100657.25;4994767;28;20033;-82
2023/12/08 00:14:31;;;;;;;20.65;9.40;;;;;;;1.08;100.00;100657.16;4994758;28;20031;-82
2023/12/08 00:16:57;;;;;;;19.83;9.20;;;;;;;1.07;100.00;100648.66;4994578;28;20042;-83
2023/12/08 00:19:22;;;;;;;23.17;10.77;;;;;;;1.13;100.00;100657.25;4994653;28;20026;-82
2023/12/08 00:21:47;;;;;;;21.25;10.20;;;;;;;1.13;100.00;100658.13;4995101;28;20106;-82
2023/12/08 00:24:13;;;;;;;20.63;9.88;;;;;;;1.10;100.00;100654.66;4995330;28;20033;-82
2023/12/08 00:26:38;;;;;;;22.00;10.77;;;;;;;1.10;100.00;100654.66;4994253;28;20479;-82
2023/12/08 00:29:04;;;;;;;21.60;10.13;;;;;;;1.10;100.00;100652.09;4995007;28;20470;-82
2023/12/08 00:31:29;;;;;;;19.10;9.10;;;;;;;1.09;100.00;100661.44;4994355;28;20023;-82
2023/12/08 00:33:56;;;;;;;21.23;9.48;;;;;;;1.11;100.00;100651.28;4994886;28;20027;-82
2023/12/08 00:36:22;;;;;;;19.85;9.50;;;;;;;1.16;100.00;100644.56;4995038;28;20029;-82
2023/12/08 00:38:48;;;;;;;20.27;9.38;;;;;;;1.13;100.00;100645.34;4994099;28;20077;-82
2023/12/08 00:41:13;;;;;;;19.80;8.82;;;;;;;1.07;100.00;100630.75;4994717;28;20026;-82
2023/12/08 00:43:38;;;;;;;21.25;9.68;;;;;;;1.12;100.00;100635.97;4994214;28;20043;-82
2023/12/08 00:46:04;;;;;;;20.60;9.77;;;;;;;1.10;100.00;100635.06;5012312;28;20033;-82
2023/12/08 00:48:30;;;;;;;20.63;9.18;;;;;;;1.10;100.00;100624.84;5013735;28;20033;-82
2023/12/08 00:50:55;;;;;;;18.92;8.57;;;;;;;1.15;100.00;100635.16;5014137;28;20022;-82
2023/12/08 00:53:20;;;;;;;18.88;8.13;;;;;;;1.13;100.00;100627.47;5013467;28;20030;-82
2023/12/08 00:55:46;;;;;;;19.13;7.90;;;;;;;1.19;100.00;100645.47;5013790;28;20026;-82
2023/12/08 00:58:13;;;;;;;18.30;8.20;;;;;;;1.17;100.00;100626.72;5014347;28;20029;-82
2023/12/08 01:00:38;;;;;;;;;;;;;;;1.07;100.00;100600.09;5013823;28;20073;-82
2023/12/08 01:03:04;;;;;;;18.87;8.63;;;;;;;1.20;100.00;100623.34;5013831;28;20389;-82
2023/12/08 01:05:29;;;;;;;18.10;8.20;;;;;;;1.19;100.00;100625.03;5015106;28;20028;-83
2023/12/08 01:07:54;;;;;;;18.65;8.50;;;;;;;1.21;100.00;100620.81;5013345;28;20022;-82
2023/12/08 01:10:20;;;;;;;19.30;8.68;;;;;;;1.19;100.00;100617.34;5014557;28;20034;-83
2023/12/08 01:12:46;;;;;;;18.57;8.40;;;;;;;1.22;100.00;100609.75;5014209;28;20094;-82
2023/12/08 01:15:14;;;;;;;18.90;8.32;;;;;;;1.26;100.00;100613.22;5012812;28;20402;-82
2023/12/08 01:17:39;;;;;;;19.90;9.32;;;;;;;1.24;100.00;100612.31;5013687;28;20022;-82
2023/12/08 01:20:07;;;;;;;19.15;9.23;;;;;;;1.21;100.00;100602.06;5013425;28;20018;-83
2023/12/08 01:22:33;;;;;;;21.05;10.10;;;;;;;1.28;100.00;100598.78;5012504;28;20076;-83
2023/12/08 01:24:58;;;;;;;20.00;9.57;;;;;;;1.27;100.00;100606.44;5013990;28;20026;-82
2023/12/08 01:27:23;;;;;;;19.30;9.07;;;;;;;1.22;100.00;100599.53;5013761;28;20026;-83
2023/12/08 01:29:51;;;;;;;19.42;8.73;;;;;;;1.23;100.00;100606.34;5013390;28;20029;-82
2023/12/08 01:32:17;;;;;;;17.38;8.10;;;;;;;1.27;100.00;100599.59;4999500;28;20034;-82
2023/12/08 01:34:42;;;;;;;21.70;10.07;;;;;;;1.23;100.00;100600.41;4993816;28;20088;-82
2023/12/08 01:37:08;;;;;;;19.92;9.50;;;;;;;1.19;100.00;100585.81;4994316;28;20376;-83
2023/12/08 01:39:33;;;;;;;20.98;10.18;;;;;;;1.27;100.00;100585.97;4994221;28;20073;-83
2023/12/08 01:41:58;;;;;;;19.25;9.30;;;;;;;1.23;100.00;100585.06;4993452;28;20077;-83
2023/12/08 01:44:24;;;;;;;20.58;10.18;;;;;;;1.23;100.00;100588.47;4993929;28;20429;-83
2023/12/08 01:46:50;;;;;;;20.52;10.13;;;;;;;1.30;100.00;100586.00;4994094;28;20030;-83
2023/12/08 01:49:16;;;;;;;21.27;10.52;;;;;;;1.27;100.00;100580.84;4993522;28;20030;-83
2023/12/08 01:51:44;;;;;;;22.15;10.60;;;;;;;1.25;100.00;100574.84;5006122;28;20026;-83
2023/12/08 01:54:12;;;;;;;20.58;10.48;;;;;;;1.24;100.00;100573.97;5013618;28;20083;-83
2023/12/08 01:56:40;;;;;;;20.38;10.35;;;;;;;1.22;100.00;100573.94;5012973;28;20525;-83
2023/12/08 01:59:08;;;;;;;19.02;9.30;;;;;;;1.23;100.00;100574.84;5013169;28;20022;-83
2023/12/08 02:01:34;;;;;;;20.33;9.73;;;;;;;1.24;100.00;100571.41;5013805;28;20064;-82
2023/12/08 02:04:00;;;;;;;20.63;9.88;;;;;;;1.23;100.00;100568.00;5012437;28;20057;-83
2023/12/08 02:06:25;;;;;;;19.25;8.65;;;;;;;1.23;100.00;100582.50;5013726;28;20033;-83
2023/12/08 02:08:51;;;;;;;21.90;10.75;;;;;;;1.13;100.00;100568.69;5013074;28;20033;-83
2023/12/08 02:11:16;;;;;;;21.10;10.13;;;;;;;1.18;100.00;100566.19;5012161;28;20487;-83
2023/12/08 02:13:45;;;;;;;21.10;9.77;;;;;;;1.15;100.00;100558.47;5012464;28;20118;-82
2023/12/08 02:16:16;;;;;;;21.95;9.65;;;;;;;1.25;100.00;100545.03;5012902;28;20069;-82
2023/12/08 02:18:42;;;;;;;20.27;9.98;;;;;;;1.17;100.00;100538.91;5012042;28;20030;-83
2023/12/08 02:21:08;;;;;;;19.75;9.35;;;;;;;1.17;100.00;100538.91;5013075;28;20030;-83
2023/12/08 02:23:35;;;;;;;22.48;10.38;;;;;;;1.15;100.00;100532.91;5012571;28;20030;-82
2023/12/08 02:26:01;;;;;;;;;;;;;;;1.18;100.00;100531.25;5012451;28;20030;-82
2023/12/08 02:28:26;;;;;;;23.13;11.60;;;;;;;1.08;100.00;100530.25;5012933;28;20004;-82
2023/12/08 02:30:56;;;;;;;22.85;11.82;;;;;;;1.00;100.00;100503.69;5011927;28;20029;-82
2023/12/08 02:33:30;;;;;;;23.42;11.38;;;;;;;1.09;100.00;100518.31;5013006;28;20029;-82
2023/12/08 02:35:56;;;;;;;23.25;11.48;;;;;;;1.05;100.00;100521.66;5012672;28;20018;-82
2023/12/08 02:38:24;;;;;;;21.52;10.55;;;;;;;1.08;100.00;100537.03;5012358;28;20030;-82
2023/12/08 02:40:49;;;;;;;20.27;9.93;;;;;;;1.11;100.00;100533.69;5016234;28;20037;-82
2023/12/08 02:43:17;;;;;;;21.83;10.60;;;;;;;1.05;100.00;100526.78;5016225;28;20378;-81
2023/12/08 02:45:42;;;;;;;21.05;9.70;;;;;;;1.07;100.00;100520.84;5015665;28;20474;-81
2023/12/08 02:48:08;;;;;;;22.08;10.93;;;;;;;1.05;100.00;100526.78;5015923;28;20026;-81
2023/12/08 02:50:33;;;;;;;21.48;10.57;;;;;;;1.06;100.00;100523.41;5015824;28;20125;-81
2023/12/08 02:52:59;;;;;;;20.70;9.52;;;;;;;1.05;100.00;100508.91;5015716;28;20033;-81
2023/12/08 02:55:24;;;;;;;19.27;9.07;;;;;;;1.05;100.00;100514.84;5015827;28;20029;-81
2023/12/08 02:57:49;;;;;;;19.40;8.77;;;;;;;1.08;100.00;100521.72;4998144;28;20057;-81
2023/12/08 03:00:15;;;;;;;18.70;8.50;;;;;;;1.05;100.00;100516.56;4996468;28;20041;-82
2023/12/08 03:02:40;;;;;;;18.23;8.30;;;;;;;1.06;100.00;100524.25;4997946;28;20050;-81
2023/12/08 03:05:06;;;;;;;18.92;7.93;;;;;;;1.21;100.00;100526.22;4996796;28;20030;-81
2023/12/08 03:07:31;;;;;;;19.10;8.30;;;;;;;1.08;100.00;100525.13;4996039;28;20018;-81
2023/12/08 03:09:56;;;;;;;17.38;7.38;;;;;;;1.11;100.00;100529.44;4995765;28;20030;-81
2023/12/08 03:12:22;;;;;;;19.30;8.43;;;;;;;1.12;100.00;100541.38;4996725;28;20371;-82
2023/12/08 03:14:49;;;;;;;17.60;7.28;;;;;;;1.09;100.00;100526.00;4995202;28;20471;-81
2023/12/08 03:17:15;;;;;;;17.17;7.22;;;;;;;1.14;100.00;100531.19;5011598;23;20050;-82
2023/12/08 03:19:41;;;;;;;14.27;6.43;;;;;;;1.13;100.00;100522.66;4996588;28;20110;-81
2023/12/08 03:22:06;;;;;;;16.60;7.20;;;;;;;1.12;100.00;100518.38;4995947;28;20046;-81
2023/12/08 03:24:34;;;;;;;15.57;7.05;;;;;;;1.14;100.00;100524.38;4996077;28;20023;-81
2023/12/08 03:26:59;;;;;;;15.80;6.20;;;;;;;1.10;100.00;100511.53;4996475;28;20021;-81
2023/12/08 03:29:24;;;;;;;15.70;6.80;;;;;;;1.13;100.00;100522.66;4995623;28;20472;-81
2023/12/08 03:31:50;;;;;;;14.75;6.63;;;;;;;1.08;100.00;100520.03;4996095;28;20072;-81
2023/12/08 03:34:15;;;;;;;16.85;7.03;;;;;;;1.04;100.00;100512.28;4994445;28;20038;-81
2023/12/08 03:36:40;;;;;;;14.77;6.53;;;;;;;1.09;100.00;100510.66;4999694;28;20082;-81
2023/12/08 03:39:06;;;;;;;14.82;6.30;;;;;;;1.14;100.00;100514.16;5015448;28;20029;-81
2023/12/08 03:41:31;;;;;;;16.55;7.15;;;;;;;1.15;100.00;100508.22;5014680;28;20100;-81
2023/12/08 03:43:56;;;;;;;16.75;6.88;;;;;;;1.12;100.00;100510.72;5015039;28;20034;-81
2023/12/08 03:46:22;;;;;;;15.98;6.53;;;;;;;1.14;100.00;100508.19;5015631;28;20033;-82
2023/12/08 03:48:50;;;;;;;14.20;6.32;;;;;;;1.16;100.00;100516.75;5014356;28;20026;-81
2023/12/08 03:51:15;;;;;;;15.73;6.63;;;;;;;1.15;100.00;100508.22;5014959;28;20029;-82
2023/12/08 03:53:41;;;;;;;13.68;6.20;;;;;;;1.19;100.00;100511.69;5005718;28;20046;-82
2023/12/08 03:56:07;;;;;;;16.02;6.70;;;;;;;1.17;100.00;100498.00;5014735;28;20475;-82
2023/12/08 03:58:32;;;;;;;17.27;7.18;;;;;;;1.12;100.00;100494.53;5014847;28;20141;-81
2023/12/08 04:00:57;;;;;;;16.73;7.25;;;;;;;1.16;100.00;100499.72;4995634;28;20415;-82
2023/12/08 04:03:23;;;;;;;18.08;7.80;;;;;;;1.16;100.00;100502.28;4994795;28;20069;-82
2023/12/08 04:05:48;;;;;;;16.55;7.28;;;;;;;1.17;100.00;100492.91;4995187;28;20022;-82
2023/12/08 04:08:13;;;;;;;14.30;6.03;;;;;;;1.13;100.00;100478.34;4995399;28;20375;-82
2023/12/08 04:10:40;;;;;;;13.80;6.18;;;;;;;1.10;100.00;100468.94;4994685;28;20191;-82
2023/12/08 04:13:05;;;;;;;13.40;5.80;;;;;;;1.18;100.00;100487.81;4995815;28;20034;-82
2023/12/08 04:15:33;;;;;;;15.32;6.43;;;;;;;1.20;100.00;100480.19;4995782;28;20023;-82
2023/12/08 04:18:07;;;;;;;14.93;6.22;;;;;;;1.18;100.00;100489.50;4994957;28;20053;-82
2023/12/08 04:20:51;;;;;;;16.30;6.70;;;;;;;1.10;100.00;100473.19;4995470;28;20505;-82
2023/12/08 04:23:28;;;;;;;14.98;6.78;;;;;;;1.02;100.00;100447.50;4995481;28;20038;-82
2023/12/08 04:25:54;;;;;;;18.13;7.50;;;;;;;1.03;100.00;100455.16;4995403;28;20038;-82
2023/12/08 04:28:37;;;;;;;18.35;8.10;;;;;;;1.14;100.00;100457.94;4995828;28;20398;-82
2023/12/08 04:31:03;;;;;;;17.10;7.38;;;;;;;1.17;100.00;100496.34;5000421;23;20046;-81
2023/12/08 04:33:29;;;;;;;18.23;7.75;;;;;;;1.19;100.00;100483.56;4995068;28;20157;-82
2023/12/08 04:35:54;;;;;;;17.42;7.28;;;;;;;1.11;100.00;100467.25;4994569;28;20027;-82
2023/12/08 04:38:19;;;;;;;18.45;8.48;;;;;;;1.19;100.00;100488.69;4994040;28;20034;-82
2023/12/08 04:40:44;;;;;;;17.60;7.75;;;;;;;1.16;100.00;100484.38;4994621;28;20030;-82
2023/12/08 04:43:10;;;;;;;19.40;8.75;;;;;;;1.18;100.00;100487.81;4994726;28;20033;-82
2023/12/08 04:45:41;;;;;;;18.92;8.32;;;;;;;1.21;100.00;100475.09;4993721;28;20074;-82
2023/12/08 04:48:07;;;;;;;17.70;7.90;;;;;;;1.27;100.00;100476.03;4994873;28;20023;-82
2023/12/08 04:50:32;;;;;;;17.05;7.68;;;;;;;1.23;100.00;100478.53;4994577;28;20113;-82
2023/12/08 04:52:57;;;;;;;16.42;7.28;;;;;;;1.16;100.00;100476.72;4993983;28;20035;-82
2023/12/08 04:55:23;;;;;;;17.92;7.47;;;;;;;1.20;100.00;100482.75;4994644;28;20546;-82
2023/12/08 04:57:48;;;;;;;17.00;7.13;;;;;;;1.21;100.00;100481.91;4994262;28;20019;-82
2023/12/08 05:00:14;;;;;;;16.48;6.82;;;;;;;1.23;100.00;100472.56;4993798;28;20388;-82
2023/12/08 05:02:42;;;;;;;16.17;7.10;;;;;;;1.27;100.00;100471.78;4990797;28;20045;-82
2023/12/08 05:05:08;;;;;;;16.90;7.38;;;;;;;1.23;100.00;100460.63;4994248;28;20029;-82
2023/12/08 05:07:33;;;;;;;16.30;7.03;;;;;;;1.30;100.00;100476.94;4993543;28;20379;-82
2023/12/08 05:09:58;;;;;;;17.00;7.03;;;;;;;1.35;100.00;100475.31;4994506;28;20030;-82
2023/12/08 05:12:24;;;;;;;16.25;7.00;;;;;;;1.35;100.00;100480.41;4994226;28;20145;-83
2023/12/08 05:14:49;;;;;;;15.18;6.38;;;;;;;1.36;100.00;100471.91;4992836;28;20022;-82
2023/12/08 05:17:15;;;;;;;14.82;6.35;;;;;;;1.40;100.00;100472.84;4994682;28;20033;-82
2023/12/08 05:19:40;;;;;;;15.73;6.53;;;;;;;1.42;100.00;100467.75;4993648;28;20101;-82
2023/12/08 05:22:05;;;;;;;16.08;7.05;;;;;;;1.43;100.00;100454.13;4994106;28;20104;-82
2023/12/08 05:24:31;;;;;;;18.08;7.95;;;;;;;1.44;100.00;100455.84;4994799;28;20065;-83
2023/12/08 05:26:57;;;;;;;17.00;7.28;;;;;;;1.42;100.00;100462.63;4993692;28;20035;-82
2023/12/08 05:29:22;;;;;;;15.90;6.82;;;;;;;1.43;100.00;100459.25;4994506;28;20125;-82
2023/12/08 05:31:48;;;;;;;15.30;6.30;;;;;;;1.42;100.00;100458.38;4993888;28;20126;-82
2023/12/08 05:34:13;;;;;;;14.70;6.18;;;;;;;1.42;100.00;100470.31;4993857;28;20110;-83
2023/12/08 05:36:38;;;;;;;14.25;6.25;;;;;;;1.48;100.00;100478.94;4994070;28;20072;-83
2023/12/08 05:39:06;;;;;;;18.25;8.07;;;;;;;1.46;100.00;100477.22;4994389;28;20023;-82
2023/12/08 05:41:31;;;;;;;;;;;;;;;1.51;100.00;100488.34;4994090;28;20077;-82
2023/12/08 05:43:56;;;;;;;15.73;6.77;;;;;;;1.48;100.00;100485.75;4994185;28;19914;-82
2023/12/08 05:46:22;;;;;;;17.27;7.65;;;;;;;1.53;100.00;100481.56;4994564;28;20026;-83
2023/12/08 05:48:47;;;;;;;16.80;7.10;;;;;;;1.53;100.00;100497.75;4993234;28;20027;-83
2023/12/08 05:51:16;;;;;;;15.57;6.50;;;;;;;1.55;100.00;100492.69;4994300;28;20022;-83
2023/12/08 05:53:41;;;;;;;15.23;6.45;;;;;;;1.49;100.00;100474.69;4994036;28;20029;-83
2023/12/08 05:56:07;;;;;;;14.90;6.35;;;;;;;1.57;100.00;100490.16;4993270;28;20399;-82
2023/12/08 05:58:35;;;;;;;13.98;6.22;;;;;;;1.57;100.00;100487.59;4993785;28;20463;-82
2023/12/08 06:01:16;;;;;;;13.57;5.80;;;;;;;1.47;100.00;100459.31;4994085;28;20033;-83
2023/12/08 06:03:56;;;;;;;14.60;5.80;;;;;;;1.54;100.00;100483.28;4992968;28;20022;-83
2023/12/08 06:06:21;;;;;;;13.30;5.90;;;;;;;1.53;100.00;100466.22;4993903;28;20499;-83
2023/12/08 06:08:47;;;;;;;12.02;5.38;;;;;;;1.53;100.00;100458.56;4993918;28;20077;-83
2023/12/08 06:11:18;;;;;;;11.50;5.13;;;;;;;1.57;100.00;100451.78;4992911;28;20072;-82
2023/12/08 06:13:43;;;;;;;12.15;5.47;;;;;;;1.61;100.00;100449.28;4995199;28;20030;-83
2023/12/08 06:16:20;;;;;;;14.38;5.70;;;;;;;1.71;100.00;100481.00;4996935;28;20030;-83
2023/12/08 06:18:45;;;;;;;11.80;5.20;;;;;;;1.73;100.00;100481.00;4997933;28;20034;-82
2023/12/08 06:21:23;;;;;;;16.33;7.13;;;;;;;1.87;100.00;100476.97;4997686;28;20135;-82
2023/12/08 06:23:48;;;;;;;15.23;6.28;;;;;;;1.70;100.00;100475.00;4996601;28;20050;-82
2023/12/08 06:26:14;;;;;;;15.32;6.90;;;;;;;1.76;100.00;100483.63;4997942;28;20050;-83
2023/12/08 06:28:40;;;;;;;15.93;6.45;;;;;;;1.76;100.00;100481.06;4997928;28;20033;-83
2023/12/08 06:31:25;;;;;;;13.75;6.20;;;;;;;1.87;100.00;100483.78;4997197;28;20056;-83
2023/12/08 06:34:11;;;;;;;17.83;7.43;;;;;;;1.83;100.00;100481.19;4997378;28;20035;-83
2023/12/08 06:36:44;;;;;;;18.88;8.32;;;;;;;1.96;100.00;100494.16;4997478;28;20074;-83
2023/12/08 06:39:10;;;;;;;17.35;7.68;;;;;;;1.94;100.00;100499.25;4997469;28;20018;-83
2023/12/08 06:41:36;;;;;;;15.45;6.47;;;;;;;1.95;100.00;100495.84;4997285;28;20077;-82
2023/12/08 06:44:01;;;;;;;14.98;6.53;;;;;;;1.99;100.00;100494.19;4997783;28;20499;-83
2023/12/08 06:46:26;;;;;;;13.80;5.80;;;;;;;1.97;100.00;100494.19;4996636;28;20073;-82
2023/12/08 06:48:51;;;;;;;14.70;6.22;;;;;;;2.04;100.00;100507.03;4997071;28;20506;-82
2023/12/08 06:51:17;;;;;;;17.20;7.25;;;;;;;2.05;100.00;100509.66;4996107;28;20084;-82
2023/12/08 06:53:42;;;;;;;16.23;6.85;;;;;;;2.04;100.00;100502.81;4996818;28;20030;-82
2023/12/08 06:56:08;;;;;;;17.40;7.53;;;;;;;2.05;100.00;100504.53;4997159;28;20026;-82
2023/12/08 06:58:33;;;;;;;17.75;7.22;;;;;;;2.10;100.00;100510.56;4996684;28;20491;-82
2023/12/08 07:01:02;;;;;;;16.25;6.90;;;;;;;2.09;100.00;100506.28;4997567;28;20030;-83
2023/12/08 07:03:33;;;;;;;19.15;8.35;;;;;;;2.16;100.00;100509.78;4996728;28;20493;-82
2023/12/08 07:06:01;;;;;;;18.35;7.90;;;;;;;2.15;100.00;100511.50;4995573;28;20475;-84
2023/12/08 07:08:27;;;;;;;20.60;8.70;;;;;;;2.20;100.00;100510.69;4996588;28;20049;-83
2023/12/08 07:10:52;;;;;;;19.10;8.52;;;;;;;2.20;100.00;100506.44;5007353;28;20475;-83
2023/12/08 07:13:17;;;;;;;17.20;7.43;;;;;;;2.19;100.00;100503.88;5015387;28;20378;-82
2023/12/08 07:15:43;;;;;;;16.20;6.75;;;;;;;2.21;100.00;100508.16;5015867;28;20040;-83
2023/12/08 07:18:08;;;;;;;14.60;6.57;;;;;;;2.24;100.00;100509.91;5015673;28;20089;-82
2023/12/08 07:20:34;;;;;;;14.95;6.18;;;;;;;2.23;100.00;100501.38;5014736;28;20029;-82
2023/12/08 07:22:59;;;;;;;13.27;5.82;;;;;;;2.26;100.00;100501.38;4996810;28;20590;-83
2023/12/08 07:25:24;;;;;;;12.43;5.50;;;;;;;2.26;100.00;100513.34;4995953;28;20026;-82
2023/12/08 07:27:51;;;;;;;10.45;5.07;;;;;;;2.28;100.00;100511.66;4995337;28;20035;-83
2023/12/08 07:30:22;;;;;;;8.85;4.57;;;;;;;2.29;100.00;100510.84;4996591;28;20036;-82
2023/12/08 07:32:48;;;;;;;10.35;4.45;;;;;;;2.26;100.00;100516.75;4995828;28;20050;-82
2023/12/08 07:35:17;;;;;;;10.43;4.78;;;;;;;2.31;100.00;100517.69;4995638;28;20033;-83
2023/12/08 07:37:55;;;;;;;13.75;5.30;;;;;;;2.32;100.00;100526.22;4995767;28;20430;-82
2023/12/08 07:40:20;;;;;;;15.13;5.60;;;;;;;2.37;100.00;100529.72;4995631;28;20033;-82
2023/12/08 07:42:45;;;;;;;11.73;5.25;;;;;;;2.35;100.00;100530.53;4995458;28;20038;-82
2023/12/08 07:45:26;;;;;;;12.48;5.43;;;;;;;2.28;100.00;100517.63;4996672;28;20022;-82
2023/12/08 07:47:51;;;;;;;14.52;5.70;;;;;;;2.41;100.00;100526.38;4995227;28;20031;-82
2023/12/08 07:50:29;;;;;;;14.88;6.18;;;;;;;2.39;100.00;100522.03;4996623;28;20069;-82
2023/12/08 07:53:13;;;;;;;15.07;6.43;;;;;;;2.26;100.00;100509.06;5013761;28;20058;-82
2023/12/08 07:55:50;;;;;;;15.80;6.25;;;;;;;2.44;100.00;100539.19;5014660;28;20176;-83
2023/12/08 07:58:16;;;;;;;14.70;5.82;;;;;;;2.36;100.00;100529.69;5016071;28;20386;-83
2023/12/08 08:00:42;;;;;;;16.52;6.70;;;;;;;2.40;100.00;100526.31;5015630;28;20037;-83
2023/12/08 08:03:08;;;;;;;13.60;5.60;;;;;;;2.46;100.00;100542.63;5015015;28;20030;-83
2023/12/08 08:05:33;;;;;;;16.83;7.10;;;;;;;2.44;100.00;100533.22;5015123;28;20045;-83
2023/12/08 08:07:58;;;;;;;18.00;7.95;;;;;;;2.46;100.00;100541.78;5015435;28;20722;-82
2023/12/08 08:10:24;;;;;;;15.32;7.05;;;;;;;2.50;100.00;100540.97;5005834;28;20030;-81
2023/12/08 08:12:49;;;;;;;14.77;6.40;;;;;;;2.53;100.00;100546.13;4995636;28;20063;-85
2023/12/08 08:15:14;;;;;;;15.57;6.68;;;;;;;2.53;100.00;100548.69;4995897;28;20454;-81
2023/12/08 08:17:40;;;;;;;16.42;7.03;;;;;;;2.58;100.00;100552.19;4995005;28;20080;-81
2023/12/08 08:20:06;;;;;;;18.33;8.05;;;;;;;2.59;100.00;100546.22;4995610;28;20424;-82
2023/12/08 08:22:32;;;;;;;18.42;7.45;;;;;;;2.56;100.00;100535.94;4995118;28;20614;-82
2023/12/08 08:24:58;;;;;;;19.05;7.45;;;;;;;2.61;100.00;100544.53;4996004;28;20033;-82
2023/12/08 08:27:23;;;;;;;19.88;7.45;;;;;;;2.62;100.00;100551.38;4995843;28;20101;-83
2023/12/08 08:29:48;;;;;;;16.83;7.35;;;;;;;2.66;100.00;100551.44;4994689;28;20030;-83
2023/12/08 08:32:17;;;;;;;15.30;6.60;;;;;;;2.70;100.00;100555.75;4995457;28;20468;-83
2023/12/08 08:34:52;;;;;;;16.50;7.28;;;;;;;2.69;100.00;100542.06;4995163;28;20030;-83
2023/12/08 08:37:17;;;;;;;16.85;7.15;;;;;;;2.73;100.00;100558.34;4993598;28;20022;-83
2023/12/08 08:39:42;;;;;;;17.75;7.30;;;;;;;2.75;100.00;100554.09;4995307;28;20033;-83
2023/12/08 08:42:08;;;;;;;18.55;7.68;;;;;;;2.78;100.00;100554.97;4995227;28;20030;-84
2023/12/08 08:44:33;;;;;;;20.00;8.77;;;;;;;2.84;100.00;100567.00;4994001;28;20364;-83
2023/12/08 08:46:58;;;;;;;18.67;8.55;;;;;;;2.84;100.00;100569.56;4995246;28;20022;-82
2023/12/08 08:49:24;;;;;;;18.73;7.82;;;;;;;2.90;100.00;100574.78;4995017;28;20117;-83
2023/12/08 08:51:49;;;;;;;17.23;7.35;;;;;;;2.93;100.00;100577.38;4994182;28;20484;-83
2023/12/08 08:54:14;;;;;;;17.02;6.80;;;;;;;2.96;100.00;100576.56;4995100;28;20045;-84
2023/12/08 08:56:40;;;;;;;17.38;7.50;;;;;;;2.91;100.00;100561.13;4994882;28;20022;-85
2023/12/08 08:59:05;;;;;;;15.27;6.35;;;;;;;2.98;100.00;100564.63;4994433;28;20382;-85
2023/12/08 09:01:30;;;;;;;15.25;5.97;;;;;;;3.05;100.00;100578.34;4994899;28;20071;-81
2023/12/08 09:03:56;;;;;;;15.48;6.50;;;;;;;3.08;100.00;100571.59;4994742;28;20475;-84
2023/12/08 09:06:21;;;;;;;17.10;6.85;;;;;;;3.10;100.00;100576.72;4994438;28;20038;-84
2023/12/08 09:08:47;;;;;;;16.05;6.78;;;;;;;3.15;100.00;100577.66;4994762;28;20026;-84
2023/12/08 09:11:12;;;;;;;20.55;8.57;;;;;;;3.19;100.00;100592.19;4995016;28;20101;-84
2023/12/08 09:13:38;;;;;;;18.73;7.28;;;;;;;3.22;100.00;100589.69;4993902;28;20026;-84
2023/12/08 09:16:18;;;;;;;19.48;8.13;;;;;;;3.27;100.00;100588.84;4994680;28;20022;-85
2023/12/08 09:18:58;;;;;;;17.42;7.38;;;;;;;3.19;100.00;100570.84;4994421;28;20113;-84
2023/12/08 09:21:34;;;;;;;18.13;7.20;;;;;;;3.18;100.00;100575.09;4994622;28;20058;-83
2023/12/08 09:23:59;;;;;;;16.95;6.95;;;;;;;3.32;100.00;100594.91;4994464;28;20026;-82
2023/12/08 09:26:39;;;;;;;16.20;6.30;;;;;;;3.35;100.00;100589.81;4993639;28;20368;-84
2023/12/08 09:29:13;;;;;;;14.10;5.72;;;;;;;3.36;100.00;100578.72;4994455;28;20117;-85
2023/12/08 09:31:41;;;;;;;11.65;5.10;;;;;;;3.45;100.00;100594.19;4993861;28;20475;-82
2023/12/08 09:34:16;;;;;;;12.40;5.28;;;;;;;3.45;100.00;100586.50;4993276;28;20077;-82
2023/12/08 09:36:52;;;;;;;11.30;4.97;;;;;;;3.55;100.00;100601.13;4993691;28;20130;-83
2023/12/08 09:39:20;;;;;;;11.98;5.15;;;;;;;3.62;100.00;100596.91;4994089;28;20072;-83
2023/12/08 09:41:46;;;;;;;13.20;5.35;;;;;;;3.66;100.00;100600.38;4992603;28;20030;-83
2023/12/08 09:44:32;;;;;;;13.43;5.55;;;;;;;3.72;100.00;100608.09;4993266;28;20054;-83
2023/12/08 09:47:12;;;;;;;12.23;5.25;;;;;;;3.75;100.00;100615.00;4993203;28;20415;-83
2023/12/08 09:49:46;;;;;;;13.18;5.70;;;;;;;3.65;100.00;100583.25;4994174;28;20037;-83
2023/12/08 09:52:21;;;;;;;13.90;5.63;;;;;;;3.80;100.00;100600.47;4997519;28;20026;-83
2023/12/08 09:54:47;;;;;;;13.90;5.88;;;;;;;3.89;100.00;100608.25;4992768;28;20403;-83
2023/12/08 09:57:13;;;;;;;17.08;6.32;;;;;;;3.94;100.00;100603.19;4999826;23;20062;-84
2023/12/08 09:59:41;;;;;;;15.90;6.00;;;;;;;3.96;100.00;100606.59;4993459;28;20030;-85
2023/12/08 10:02:09;;;;;;;17.13;6.30;;;;;;;4.02;100.00;100611.81;4992597;28;20034;-84
2023/12/08 10:04:35;;;;;;;15.77;6.10;;;;;;;4.05;100.00;100611.84;4993111;28;20030;-84
2023/12/08 10:07:03;;;;;;;16.08;6.25;;;;;;;4.12;100.00;100616.16;4992607;28;20035;-84
2023/12/08 10:09:29;;;;;;;16.33;6.50;;;;;;;4.18;100.00;100617.91;4992346;28;20409;-84
2023/12/08 10:11:55;;;;;;;17.67;7.03;;;;;;;4.28;100.00;100613.69;4992584;28;20128;-84
2023/12/08 10:14:21;;;;;;;18.13;7.40;;;;;;;4.27;100.00;100601.72;4993372;28;20357;-84
2023/12/08 10:16:47;;;;;;;15.82;6.45;;;;;;;4.32;100.00;100612.88;4989542;28;20038;-84
2023/12/08 10:19:12;;;;;;;15.10;6.35;;;;;;;4.38;100.00;100612.06;4993723;28;20029;-82
2023/12/08 10:21:38;;;;;;;15.45;6.15;;;;;;;4.42;100.00;100606.94;5009242;28;20390;-83
2023/12/08 10:24:04;;;;;;;16.17;6.30;;;;;;;4.46;100.00;100608.69;5012196;28;20026;-81
2023/12/08 10:26:32;;;;;;;13.63;5.60;;;;;;;4.51;100.00;100612.97;5013040;28;20471;-86
2023/12/08 10:28:58;;;;;;;15.32;5.82;;;;;;;4.56;100.00;100619.03;5012900;28;20018;-87
2023/12/08 10:31:25;;;;;;;13.90;5.63;;;;;;;4.58;100.00;100615.59;5013292;28;20026;-86
2023/12/08 10:33:51;;;;;;;;;;;;;;;4.64;100.00;100614.78;5013788;28;20408;-86
2023/12/08 10:36:17;;;;;;;14.60;5.93;;;;;;;4.61;100.00;100614.78;5013086;28;20385;-86
2023/12/08 10:38:43;;;;;;;14.00;5.80;;;;;;;4.66;100.00;100617.38;5013488;28;20069;-86
2023/12/08 10:41:12;;;;;;;14.35;5.40;;;;;;;4.72;100.00;100625.97;5012962;28;20066;-86
2023/12/08 10:43:39;;;;;;;13.45;5.40;;;;;;;4.76;100.00;100622.56;5011774;28;20038;-86
2023/12/08 10:46:11;;;;;;;15.27;5.93;;;;;;;4.80;100.00;100620.84;5012827;28;20088;-86
2023/12/08 10:48:37;;;;;;;14.07;5.35;;;;;;;4.83;100.00;100620.88;5006561;28;20430;-87
2023/12/08 10:51:04;;;;;;;17.13;6.88;;;;;;;4.86;100.00;100620.03;4992337;28;20172;-86
2023/12/08 10:53:44;;;;;;;17.42;6.57;;;;;;;4.79;100.00;100596.88;4993172;28;20107;-86
2023/12/08 10:59:39;;;;;;;19.07;7.47;;;;;;;4.98;100.00;100599.50;4993033;28;20041;-86
2023/12/08 11:02:25;;;;;;;19.00;7.40;;;;;;;5.06;100.00;100604.69;4996643;28;20125;-86
2023/12/08 11:04:57;;;;;;;18.83;7.78;;;;;;;5.11;100.00;100615.84;4995461;28;20035;-86
2023/12/08 11:07:31;;;;;;;22.52;8.82;;;;;;;5.12;100.00;100612.44;4997007;28;20030;-86
2023/12/08 11:10:06;;;;;;;21.60;8.15;;;;;;;5.16;100.00;100618.44;4996909;28;20030;-86
2023/12/08 11:12:38;;;;;;;22.08;8.65;;;;;;;5.18;100.00;100615.00;4995470;28;20035;-85
2023/12/08 11:15:09;;;;;;;19.23;7.68;;;;;;;5.20;100.00;100610.75;4996324;28;20030;-86
2023/12/08 11:17:43;;;;;;;18.73;7.22;;;;;;;5.23;100.00;100621.06;4995995;28;20062;-86
2023/12/08 11:20:10;;;;;;;16.40;6.57;;;;;;;5.19;100.00;100603.00;4988882;28;20038;-87
2023/12/08 11:22:35;;;;;;;;;;;;;;;5.29;100.00;100621.91;4995800;28;20031;-86